Olton, Texas
Current Conditions -  °F | °C
As of 1:35 AM on Wednesday 22 Oct 2014 (Local Time) from KPVW Reporting Station
Broken Clouds Broken Clouds  
Wind Chill: 55°   Ceiling: 6500
Heat Index: 55°   Visibility: 10mi
Dew Point: 51°   Wind: 3mph
Humidity: 88%   Direction: 190°S
Pressure: 30.08"   Gusts: NA
Location:  34.18°N, 102.13°W
Report Text: KPVW 220635Z AUTO 19003KT 10SM BKN065 BKN080 13/11 A3008 RMK AO2 T01270107
Loading
Personal Weather Stations






























Interactive Weather Map
Tropical Storm Tracking
New forecast layout! Learn more

10-Day Weather Forecast

Advertisements
Track Severe Weather on mobile